sensor_id;sensor_type;location;lat;lon;timestamp;pressure;altitude;pressure_sealevel;temperature;humidity
61318;BME280;47201;40.428;-8.436;2022-07-21T00:01:37;100803.59;;;17.03;100.00
61318;BME280;47201;40.428;-8.436;2022-07-21T00:03:38;100807.28;;;16.98;100.00
61318;BME280;47201;40.428;-8.436;2022-07-21T00:05:38;100812.66;;;16.91;100.00
61318;BME280;47201;40.428;-8.436;2022-07-21T00:07:39;100813.56;;;16.90;100.00
61318;BME280;47201;40.428;-8.436;2022-07-21T00:09:39;100808.41;;;16.87;100.00
61318;BME280;47201;40.428;-8.436;2022-07-21T00:11:40;100811.09;;;16.84;100.00
61318;BME280;47201;40.428;-8.436;2022-07-21T00:13:40;100812.94;;;16.82;100.00
61318;BME280;47201;40.428;-8.436;2022-07-21T00:15:41;100818.22;;;16.82;100.00
61318;BME280;47201;40.428;-8.436;2022-07-21T00:17:42;100808.47;;;16.84;100.00
61318;BME280;47201;40.428;-8.436;2022-07-21T00:19:43;100809.25;;;16.88;100.00
61318;BME280;47201;40.428;-8.436;2022-07-21T00:21:43;100817.16;;;16.89;100.00
61318;BME280;47201;40.428;-8.436;2022-07-21T00:23:44;100814.47;;;16.91;100.00
61318;BME280;47201;40.428;-8.436;2022-07-21T00:25:44;100811.72;;;16.95;100.00
61318;BME280;47201;40.428;-8.436;2022-07-21T00:27:45;100804.50;;;17.02;100.00
61318;BME280;47201;40.428;-8.436;2022-07-21T00:29:45;100809.59;;;17.10;100.00
61318;BME280;47201;40.428;-8.436;2022-07-21T00:31:46;100810.25;;;17.18;100.00
61318;BME280;47201;40.428;-8.436;2022-07-21T00:33:47;100811.81;;;17.25;100.00
61318;BME280;47201;40.428;-8.436;2022-07-21T00:35:51;100809.84;;;17.32;100.00
61318;BME280;47201;40.428;-8.436;2022-07-21T00:37:51;100806.09;;;17.41;100.00
61318;BME280;47201;40.428;-8.436;2022-07-21T00:39:52;100809.47;;;17.46;100.00
61318;BME280;47201;40.428;-8.436;2022-07-21T00:41:53;100803.16;;;17.50;100.00
61318;BME280;47201;40.428;-8.436;2022-07-21T00:43:53;100807.47;;;17.54;100.00
61318;BME280;47201;40.428;-8.436;2022-07-21T00:45:54;100802.06;;;17.59;100.00
61318;BME280;47201;40.428;-8.436;2022-07-21T00:47:55;100802.84;;;17.63;100.00
61318;BME280;47201;40.428;-8.436;2022-07-21T00:49:56;100804.50;;;17.65;100.00
61318;BME280;47201;40.428;-8.436;2022-07-21T00:51:57;100800.91;;;17.68;100.00
61318;BME280;47201;40.428;-8.436;2022-07-21T00:53:57;100797.34;;;17.69;100.00
61318;BME280;47201;40.428;-8.436;2022-07-21T00:55:59;100800.84;;;17.71;100.00
61318;BME280;47201;40.428;-8.436;2022-07-21T00:58:00;100800.72;;;17.74;100.00
61318;BME280;47201;40.428;-8.436;2022-07-21T01:00:02;100794.53;;;17.75;100.00
61318;BME280;47201;40.428;-8.436;2022-07-21T01:02:06;100798.97;;;17.73;100.00
61318;BME280;47201;40.428;-8.436;2022-07-21T01:04:07;100796.31;;;17.74;100.00
61318;BME280;47201;40.428;-8.436;2022-07-21T01:06:08;100791.06;;;17.73;100.00
61318;BME280;47201;40.428;-8.436;2022-07-21T01:08:08;100797.09;;;17.78;100.00
61318;BME280;47201;40.428;-8.436;2022-07-21T01:10:12;100789.03;;;17.81;100.00
61318;BME280;47201;40.428;-8.436;2022-07-21T01:12:13;100788.84;;;17.89;100.00
61318;BME280;47201;40.428;-8.436;2022-07-21T01:14:13;100793.09;;;17.93;100.00
61318;BME280;47201;40.428;-8.436;2022-07-21T01:16:14;100781.59;;;17.94;100.00
61318;BME280;47201;40.428;-8.436;2022-07-21T01:18:14;100785.97;;;17.97;100.00
61318;BME280;47201;40.428;-8.436;2022-07-21T01:20:17;100782.41;;;17.98;100.00
61318;BME280;47201;40.428;-8.436;2022-07-21T01:22:18;100788.59;;;17.98;100.00
61318;BME280;47201;40.428;-8.436;2022-07-21T01:24:18;100779.63;;;18.02;100.00
61318;BME280;47201;40.428;-8.436;2022-07-21T01:26:19;100777.81;;;18.04;100.00
61318;BME280;47201;40.428;-8.436;2022-07-21T01:28:20;100773.38;;;18.05;100.00
61318;BME280;47201;40.428;-8.436;2022-07-21T01:30:20;100777.75;;;18.06;100.00
61318;BME280;47201;40.428;-8.436;2022-07-21T01:32:21;100768.00;;;18.08;100.00
61318;BME280;47201;40.428;-8.436;2022-07-21T01:34:22;100774.13;;;18.08;100.00
61318;BME280;47201;40.428;-8.436;2022-07-21T01:36:22;100771.44;;;18.10;100.00
61318;BME280;47201;40.428;-8.436;2022-07-21T01:38:23;100766.13;;;18.10;100.00
61318;BME280;47201;40.428;-8.436;2022-07-21T01:40:42;100773.16;;;18.11;100.00
61318;BME280;47201;40.428;-8.436;2022-07-21T01:43:01;100771.34;;;18.13;100.00
61318;BME280;47201;40.428;-8.436;2022-07-21T01:45:03;100764.13;;;18.18;100.00
61318;BME280;47201;40.428;-8.436;2022-07-21T01:47:04;100763.31;;;18.16;100.00
61318;BME280;47201;40.428;-8.436;2022-07-21T01:49:05;100762.50;;;18.14;100.00
61318;BME280;47201;40.428;-8.436;2022-07-21T01:51:05;100757.97;;;18.18;100.00
61318;BME280;47201;40.428;-8.436;2022-07-21T01:53:06;100759.75;;;18.17;100.00
61318;BME280;47201;40.428;-8.436;2022-07-21T01:55:06;100761.53;;;18.17;100.00
61318;BME280;47201;40.428;-8.436;2022-07-21T01:57:07;100760.69;;;18.16;100.00
61318;BME280;47201;40.428;-8.436;2022-07-21T01:59:08;100758.81;;;18.20;100.00
61318;BME280;47201;40.428;-8.436;2022-07-21T02:01:08;100755.13;;;18.24;100.00
61318;BME280;47201;40.428;-8.436;2022-07-21T02:03:09;100748.03;;;18.24;100.00
61318;BME280;47201;40.428;-8.436;2022-07-21T02:05:09;100748.97;;;18.23;100.00
61318;BME280;47201;40.428;-8.436;2022-07-21T02:07:10;100748.16;;;18.21;100.00
61318;BME280;47201;40.428;-8.436;2022-07-21T02:09:10;100747.34;;;18.19;100.00
61318;BME280;47201;40.428;-8.436;2022-07-21T02:11:12;100745.59;;;18.18;100.00
61318;BME280;47201;40.428;-8.436;2022-07-21T02:13:13;100742.97;;;18.18;100.00
61318;BME280;47201;40.428;-8.436;2022-07-21T02:15:14;100747.19;;;18.24;100.00
61318;BME280;47201;40.428;-8.436;2022-07-21T02:17:14;100744.47;;;18.26;100.00
61318;BME280;47201;40.428;-8.436;2022-07-21T02:19:15;100747.13;;;18.26;100.00
61318;BME280;47201;40.428;-8.436;2022-07-21T02:21:15;100746.22;;;18.27;100.00
61318;BME280;47201;40.428;-8.436;2022-07-21T02:23:16;100736.53;;;18.26;100.00
61318;BME280;47201;40.428;-8.436;2022-07-21T02:25:17;100740.06;;;18.26;100.00
61318;BME280;47201;40.428;-8.436;2022-07-21T02:27:17;100740.00;;;18.28;100.00
61318;BME280;47201;40.428;-8.436;2022-07-21T02:29:18;100744.41;;;18.29;100.00
61318;BME280;47201;40.428;-8.436;2022-07-21T02:31:18;100742.66;;;18.28;100.00
61318;BME280;47201;40.428;-8.436;2022-07-21T02:33:19;100739.16;;;18.27;100.00
61318;BME280;47201;40.428;-8.436;2022-07-21T02:35:20;100747.09;;;18.27;100.00
61318;BME280;47201;40.428;-8.436;2022-07-21T02:37:20;100743.56;;;18.27;100.00
61318;BME280;47201;40.428;-8.436;2022-07-21T02:39:21;100740.06;;;18.26;100.00
61318;BME280;47201;40.428;-8.436;2022-07-21T02:41:22;100740.97;;;18.25;100.00
61318;BME280;47201;40.428;-8.436;2022-07-21T02:43:22;100745.41;;;18.24;100.00
61318;BME280;47201;40.428;-8.436;2022-07-21T02:45:23;100747.19;;;18.24;100.00
61318;BME280;47201;40.428;-8.436;2022-07-21T02:47:23;100751.63;;;18.23;100.00
61318;BME280;47201;40.428;-8.436;2022-07-21T02:49:24;100746.97;;;18.30;100.00
61318;BME280;47201;40.428;-8.436;2022-07-21T02:51:24;100748.00;;;18.26;100.00
61318;BME280;47201;40.428;-8.436;2022-07-21T02:53:25;100745.41;;;18.24;100.00
61318;BME280;47201;40.428;-8.436;2022-07-21T02:55:27;100746.34;;;18.23;100.00
61318;BME280;47201;40.428;-8.436;2022-07-21T02:57:28;100742.03;;;18.19;100.00
61318;BME280;47201;40.428;-8.436;2022-07-21T02:59:28;100744.81;;;18.16;100.00
61318;BME280;47201;40.428;-8.436;2022-07-21T03:01:29;100743.97;;;18.14;100.00
61318;BME280;47201;40.428;-8.436;2022-07-21T03:03:32;100737.88;;;18.12;100.00
61318;BME280;47201;40.428;-8.436;2022-07-21T03:05:36;100733.53;;;18.10;100.00
61318;BME280;47201;40.428;-8.436;2022-07-21T03:07:37;100735.34;;;18.09;100.00
61318;BME280;47201;40.428;-8.436;2022-07-21T03:09:38;100733.41;;;18.14;100.00
61318;BME280;47201;40.428;-8.436;2022-07-21T03:11:38;100726.28;;;18.16;100.00
61318;BME280;47201;40.428;-8.436;2022-07-21T03:13:39;100731.41;;;18.21;100.00
61318;BME280;47201;40.428;-8.436;2022-07-21T03:15:39;100725.16;;;18.23;100.00
61318;BME280;47201;40.428;-8.436;2022-07-21T03:17:40;100726.78;;;18.28;100.00
61318;BME280;47201;40.428;-8.436;2022-07-21T03:19:40;100730.13;;;18.33;100.00
61318;BME280;47201;40.428;-8.436;2022-07-21T03:21:41;100722.94;;;18.36;100.00
61318;BME280;47201;40.428;-8.436;2022-07-21T03:23:41;100727.00;;;18.21;100.00
61318;BME280;47201;40.428;-8.436;2022-07-21T03:25:45;100723.81;;;18.10;100.00
61318;BME280;47201;40.428;-8.436;2022-07-21T03:27:46;100727.56;;;18.03;100.00
61318;BME280;47201;40.428;-8.436;2022-07-21T03:29:47;100715.63;;;17.89;100.00
61318;BME280;47201;40.428;-8.436;2022-07-21T03:31:48;100715.06;;;17.80;100.00
61318;BME280;47201;40.428;-8.436;2022-07-21T03:33:48;100717.78;;;17.78;100.00
61318;BME280;47201;40.428;-8.436;2022-07-21T03:35:49;100710.06;;;17.70;100.00
61318;BME280;47201;40.428;-8.436;2022-07-21T03:37:53;100711.03;;;17.68;100.00
61318;BME280;47201;40.428;-8.436;2022-07-21T03:39:54;100715.59;;;17.63;100.00
61318;BME280;47201;40.428;-8.436;2022-07-21T03:41:54;100706.03;;;17.58;100.00
61318;BME280;47201;40.428;-8.436;2022-07-21T03:43:55;100710.44;;;17.58;100.00
61318;BME280;47201;40.428;-8.436;2022-07-21T03:45:56;100707.66;;;17.63;100.00
61318;BME280;47201;40.428;-8.436;2022-07-21T03:47:57;100707.41;;;17.72;100.00
61318;BME280;47201;40.428;-8.436;2022-07-21T03:49:57;100712.50;;;17.76;100.00
61318;BME280;47201;40.428;-8.436;2022-07-21T03:51:58;100708.19;;;17.74;100.00
61318;BME280;47201;40.428;-8.436;2022-07-21T03:53:58;100708.81;;;17.82;100.00
61318;BME280;47201;40.428;-8.436;2022-07-21T03:55:59;100706.88;;;17.87;100.00
61318;BME280;47201;40.428;-8.436;2022-07-21T03:58:01;100705.78;;;17.96;100.00
61318;BME280;47201;40.428;-8.436;2022-07-21T04:00:03;100707.38;;;18.02;100.00
61318;BME280;47201;40.428;-8.436;2022-07-21T04:02:11;100716.16;;;18.02;100.00
61318;BME280;47201;40.428;-8.436;2022-07-21T04:04:12;100716.06;;;18.05;100.00
61318;BME280;47201;40.428;-8.436;2022-07-21T04:06:13;100711.63;;;18.06;100.00
61318;BME280;47201;40.428;-8.436;2022-07-21T04:08:13;100713.34;;;18.07;100.00
61318;BME280;47201;40.428;-8.436;2022-07-21T04:10:15;100703.63;;;18.07;100.00
61318;BME280;47201;40.428;-8.436;2022-07-21T04:12:15;100703.63;;;18.07;100.00
61318;BME280;47201;40.428;-8.436;2022-07-21T04:14:16;100706.47;;;18.01;100.00
61318;BME280;47201;40.428;-8.436;2022-07-21T04:16:16;100710.94;;;17.99;100.00
61318;BME280;47201;40.428;-8.436;2022-07-21T04:18:17;100698.66;;;17.98;100.00
61318;BME280;47201;40.428;-8.436;2022-07-21T04:20:18;100700.41;;;17.98;100.00
61318;BME280;47201;40.428;-8.436;2022-07-21T04:22:18;100706.63;;;17.97;100.00
61318;BME280;47201;40.428;-8.436;2022-07-21T04:24:19;100705.78;;;17.96;100.00
61318;BME280;47201;40.428;-8.436;2022-07-21T04:26:19;100710.19;;;17.96;100.00
61318;BME280;47201;40.428;-8.436;2022-07-21T04:28:20;100711.13;;;17.93;100.00
61318;BME280;47201;40.428;-8.436;2022-07-21T04:30:22;100708.63;;;17.88;100.00
61318;BME280;47201;40.428;-8.436;2022-07-21T04:32:23;100717.38;;;17.90;100.00
61318;BME280;47201;40.428;-8.436;2022-07-21T04:34:23;100708.53;;;17.91;100.00
61318;BME280;47201;40.428;-8.436;2022-07-21T04:36:24;100705.81;;;17.93;100.00
61318;BME280;47201;40.428;-8.436;2022-07-21T04:38:24;100706.03;;;17.87;100.00
61318;BME280;47201;40.428;-8.436;2022-07-21T04:40:25;100721.13;;;17.83;100.00
61318;BME280;47201;40.428;-8.436;2022-07-21T04:42:26;100707.00;;;17.84;100.00
61318;BME280;47201;40.428;-8.436;2022-07-21T04:44:26;100709.59;;;17.86;100.00
61318;BME280;47201;40.428;-8.436;2022-07-21T04:46:27;100700.78;;;17.85;100.00
61318;BME280;47201;40.428;-8.436;2022-07-21T04:48:27;100708.66;;;17.87;100.00
61318;BME280;47201;40.428;-8.436;2022-07-21T04:50:28;100708.66;;;17.87;100.00
61318;BME280;47201;40.428;-8.436;2022-07-21T04:52:29;100700.78;;;17.85;100.00
61318;BME280;47201;40.428;-8.436;2022-07-21T04:54:29;100700.69;;;17.88;100.00
61318;BME280;47201;40.428;-8.436;2022-07-21T04:56:30;100706.03;;;17.87;100.00
61318;BME280;47201;40.428;-8.436;2022-07-21T04:58:31;100715.06;;;17.80;100.00
61318;BME280;47201;40.428;-8.436;2022-07-21T05:00:31;100722.19;;;17.77;100.00
61318;BME280;47201;40.428;-8.436;2022-07-21T05:02:32;100723.06;;;17.78;100.00
61318;BME280;47201;40.428;-8.436;2022-07-21T05:04:33;100727.44;;;17.79;100.00
61318;BME280;47201;40.428;-8.436;2022-07-21T05:06:36;100726.50;;;17.80;100.00
61318;BME280;47201;40.428;-8.436;2022-07-21T05:08:37;100724.78;;;17.79;100.00
61318;BME280;47201;40.428;-8.436;2022-07-21T05:10:37;100726.63;;;17.77;100.00
61318;BME280;47201;40.428;-8.436;2022-07-21T05:12:38;100722.22;;;17.76;100.00
61318;BME280;47201;40.428;-8.436;2022-07-21T05:14:39;100731.03;;;17.76;100.00
61318;BME280;47201;40.428;-8.436;2022-07-21T05:16:39;100723.13;;;17.75;100.00
61318;BME280;47201;40.428;-8.436;2022-07-21T05:18:40;100719.72;;;17.71;100.00
61318;BME280;47201;40.428;-8.436;2022-07-21T05:20:40;100729.44;;;17.71;100.00
61318;BME280;47201;40.428;-8.436;2022-07-21T05:22:41;100725.97;;;17.69;100.00
61318;BME280;47201;40.428;-8.436;2022-07-21T05:24:41;100727.78;;;17.67;100.00
61318;BME280;47201;40.428;-8.436;2022-07-21T05:26:42;100732.19;;;17.68;100.00
61318;BME280;47201;40.428;-8.436;2022-07-21T05:28:42;100728.63;;;17.69;100.00
61318;BME280;47201;40.428;-8.436;2022-07-21T05:30:43;100730.31;;;17.71;100.00
61318;BME280;47201;40.428;-8.436;2022-07-21T05:32:44;100738.22;;;17.71;100.00
61318;BME280;47201;40.428;-8.436;2022-07-21T05:34:44;100735.59;;;17.71;100.00
61318;BME280;47201;40.428;-8.436;2022-07-21T05:36:45;100738.16;;;17.74;100.00
61318;BME280;47201;40.428;-8.436;2022-07-21T05:38:45;100737.19;;;17.77;100.00
61318;BME280;47201;40.428;-8.436;2022-07-21T05:40:47;100736.16;;;17.81;100.00
61318;BME280;47201;40.428;-8.436;2022-07-21T05:42:47;100739.72;;;17.80;100.00
61318;BME280;47201;40.428;-8.436;2022-07-21T05:44:48;100735.44;;;17.76;100.00
61318;BME280;47201;40.428;-8.436;2022-07-21T05:46:48;100739.13;;;17.72;100.00
61318;BME280;47201;40.428;-8.436;2022-07-21T05:48:49;100742.63;;;17.72;100.00
61318;BME280;47201;40.428;-8.436;2022-07-21T05:50:49;100737.28;;;17.74;100.00
61318;BME280;47201;40.428;-8.436;2022-07-21T05:52:50;100746.88;;;17.76;100.00
61318;BME280;47201;40.428;-8.436;2022-07-21T05:54:50;100735.38;;;17.79;100.00
61318;BME280;47201;40.428;-8.436;2022-07-21T05:56:51;100743.19;;;17.82;100.00
61318;BME280;47201;40.428;-8.436;2022-07-21T05:58:52;100742.19;;;17.86;100.00
61318;BME280;47201;40.428;-8.436;2022-07-21T06:00:52;100739.38;;;17.91;100.00
61318;BME280;47201;40.428;-8.436;2022-07-21T06:03:08;100736.63;;;17.96;100.00
61318;BME280;47201;40.428;-8.436;2022-07-21T06:05:09;100742.66;;;18.01;100.00
61318;BME280;47201;40.428;-8.436;2022-07-21T06:07:11;100754.91;;;18.03;100.00
61318;BME280;47201;40.428;-8.436;2022-07-21T06:09:11;100746.84;;;18.08;100.00
61318;BME280;47201;40.428;-8.436;2022-07-21T06:11:13;100752.88;;;18.12;100.00
61318;BME280;47201;40.428;-8.436;2022-07-21T06:13:14;100752.78;;;18.15;100.00
61318;BME280;47201;40.428;-8.436;2022-07-21T06:15:14;100742.97;;;18.18;100.00
61318;BME280;47201;40.428;-8.436;2022-07-21T06:17:15;100736.75;;;18.19;100.00
61318;BME280;47201;40.428;-8.436;2022-07-21T06:19:15;100731.56;;;18.16;100.00
61318;BME280;47201;40.428;-8.436;2022-07-21T06:21:16;100732.44;;;18.17;100.00
61318;BME280;47201;40.428;-8.436;2022-07-21T06:23:18;100728.75;;;18.21;100.00
61318;BME280;47201;40.428;-8.436;2022-07-21T06:25:18;100732.13;;;18.26;100.00
61318;BME280;47201;40.428;-8.436;2022-07-21T06:27:20;100729.63;;;18.21;100.00
61318;BME280;47201;40.428;-8.436;2022-07-21T06:29:22;100728.81;;;18.19;100.00
61318;BME280;47201;40.428;-8.436;2022-07-21T06:31:22;100727.91;;;18.20;100.00
61318;BME280;47201;40.428;-8.436;2022-07-21T06:33:23;100733.81;;;18.29;100.00
61318;BME280;47201;40.428;-8.436;2022-07-21T06:35:23;100734.41;;;18.37;100.00
61318;BME280;47201;40.428;-8.436;2022-07-21T06:37:24;100741.19;;;18.46;100.00
61318;BME280;47201;40.428;-8.436;2022-07-21T06:39:24;100743.38;;;18.60;100.00
61318;BME280;47201;40.428;-8.436;2022-07-21T06:41:25;100751.69;;;18.74;100.00
61318;BME280;47201;40.428;-8.436;2022-07-21T06:43:25;100755.84;;;18.81;100.00
61318;BME280;47201;40.428;-8.436;2022-07-21T06:45:26;100744.59;;;18.75;100.00
61318;BME280;47201;40.428;-8.436;2022-07-21T06:47:27;100750.66;;;18.78;100.00
61318;BME280;47201;40.428;-8.436;2022-07-21T06:49:28;100754.13;;;18.80;100.00
61318;BME280;47201;40.428;-8.436;2022-07-21T06:51:28;100752.28;;;18.82;100.00
61318;BME280;47201;40.428;-8.436;2022-07-21T06:53:29;100756.44;;;18.90;100.00
61318;BME280;47201;40.428;-8.436;2022-07-21T06:55:30;100759.75;;;18.96;100.00
61318;BME280;47201;40.428;-8.436;2022-07-21T06:57:30;100769.22;;;19.03;100.00
61318;BME280;47201;40.428;-8.436;2022-07-21T06:59:31;100771.69;;;19.08;100.00
61318;BME280;47201;40.428;-8.436;2022-07-21T07:01:31;100772.41;;;19.13;100.00
61318;BME280;47201;40.428;-8.436;2022-07-21T07:03:32;100768.72;;;19.17;100.00
61318;BME280;47201;40.428;-8.436;2022-07-21T07:05:36;100773.84;;;19.22;100.00
61318;BME280;47201;40.428;-8.436;2022-07-21T07:07:37;100775.44;;;19.28;100.00
61318;BME280;47201;40.428;-8.436;2022-07-21T07:09:37;100779.69;;;19.32;100.00
61318;BME280;47201;40.428;-8.436;2022-07-21T07:11:38;100773.88;;;19.46;100.00
61318;BME280;47201;40.428;-8.436;2022-07-21T07:13:39;100775.38;;;19.53;100.00
61318;BME280;47201;40.428;-8.436;2022-07-21T07:15:40;100778.63;;;19.60;100.00
61318;BME280;47201;40.428;-8.436;2022-07-21T07:17:40;100779.28;;;19.66;100.00
61318;BME280;47201;40.428;-8.436;2022-07-21T07:19:41;100770.91;;;19.77;100.00
61318;BME280;47201;40.428;-8.436;2022-07-21T07:21:41;100775.16;;;19.81;100.00
61318;BME280;47201;40.428;-8.436;2022-07-21T07:23:42;100777.47;;;19.91;100.00
61318;BME280;47201;40.428;-8.436;2022-07-21T07:25:43;100780.81;;;19.96;100.00
61318;BME280;47201;40.428;-8.436;2022-07-21T07:27:44;100785.09;;;20.00;100.00
61318;BME280;47201;40.428;-8.436;2022-07-21T07:29:45;100785.75;;;20.05;100.00
61318;BME280;47201;40.428;-8.436;2022-07-21T07:31:45;100779.53;;;20.06;100.00
61318;BME280;47201;40.428;-8.436;2022-07-21T07:33:45;100778.59;;;20.07;100.00
61318;BME280;47201;40.428;-8.436;2022-07-21T07:35:46;100788.59;;;20.23;100.00
61318;BME280;47201;40.428;-8.436;2022-07-21T07:37:47;100791.19;;;20.24;100.00
61318;BME280;47201;40.428;-8.436;2022-07-21T07:39:48;100779.47;;;20.30;100.00
61318;BME280;47201;40.428;-8.436;2022-07-21T07:41:49;100786.25;;;20.37;99.63
61318;BME280;47201;40.428;-8.436;2022-07-21T07:43:49;100780.28;;;20.32;99.16
61318;BME280;47201;40.428;-8.436;2022-07-21T07:45:51;100787.59;;;20.25;99.69
61318;BME280;47201;40.428;-8.436;2022-07-21T07:47:52;100780.50;;;20.26;99.66
61318;BME280;47201;40.428;-8.436;2022-07-21T07:49:52;100782.41;;;20.44;98.00
61318;BME280;47201;40.428;-8.436;2022-07-21T07:51:53;100785.13;;;20.21;98.72
61318;BME280;47201;40.428;-8.436;2022-07-21T07:53:53;100788.66;;;20.21;99.66
61318;BME280;47201;40.428;-8.436;2022-07-21T07:55:54;100789.72;;;20.17;99.55
61318;BME280;47201;40.428;-8.436;2022-07-21T07:57:55;100789.59;;;20.20;99.63
61318;BME280;47201;40.428;-8.436;2022-07-21T07:59:55;100790.00;;;20.32;99.10
61318;BME280;47201;40.428;-8.436;2022-07-21T08:01:56;100790.63;;;20.38;98.10
61318;BME280;47201;40.428;-8.436;2022-07-21T08:03:56;100787.25;;;20.35;98.71
61318;BME280;47201;40.428;-8.436;2022-07-21T08:05:57;100792.75;;;20.51;98.45
61318;BME280;47201;40.428;-8.436;2022-07-21T08:08:03;100795.81;;;20.84;95.47
61318;BME280;47201;40.428;-8.436;2022-07-21T08:10:08;100798.63;;;21.02;94.80
61318;BME280;47201;40.428;-8.436;2022-07-21T08:12:08;100797.34;;;21.11;93.54
61318;BME280;47201;40.428;-8.436;2022-07-21T08:14:09;100800.22;;;21.25;93.74
61318;BME280;47201;40.428;-8.436;2022-07-21T08:16:10;100797.41;;;21.49;92.03
61318;BME280;47201;40.428;-8.436;2022-07-21T08:18:12;100793.81;;;21.50;91.68
61318;BME280;47201;40.428;-8.436;2022-07-21T08:30:20;100784.69;;;22.49;85.08
61318;BME280;47201;40.428;-8.436;2022-07-21T08:32:21;100790.31;;;22.61;85.04
61318;BME280;47201;40.428;-8.436;2022-07-21T08:34:22;100793.47;;;22.87;84.74
61318;BME280;47201;40.428;-8.436;2022-07-21T08:36:26;100787.41;;;23.18;82.25
61318;BME280;47201;40.428;-8.436;2022-07-21T08:38:35;100789.19;;;23.51;80.88
61318;BME280;47201;40.428;-8.436;2022-07-21T08:40:44;100795.63;;;23.97;79.09
61318;BME280;47201;40.428;-8.436;2022-07-21T08:42:45;100793.38;;;24.21;77.18
61318;BME280;47201;40.428;-8.436;2022-07-21T08:44:46;100794.28;;;24.36;75.24
61318;BME280;47201;40.428;-8.436;2022-07-21T08:46:48;100797.00;;;24.50;74.63
61318;BME280;47201;40.428;-8.436;2022-07-21T08:48:52;100796.72;;;24.24;74.50
61318;BME280;47201;40.428;-8.436;2022-07-21T08:50:58;100802.94;;;24.55;74.24
61318;BME280;47201;40.428;-8.436;2022-07-21T08:52:59;100799.72;;;24.95;73.45
61318;BME280;47201;40.428;-8.436;2022-07-21T08:55:00;100797.69;;;24.84;72.34
61318;BME280;47201;40.428;-8.436;2022-07-21T08:57:04;100802.72;;;25.19;71.29
61318;BME280;47201;40.428;-8.436;2022-07-21T08:59:14;100802.16;;;25.58;70.36
61318;BME280;47201;40.428;-8.436;2022-07-21T09:01:49;100813.25;;;25.66;69.44
61318;BME280;47201;40.428;-8.436;2022-07-21T09:03:52;100805.34;;;25.92;67.88
61318;BME280;47201;40.428;-8.436;2022-07-21T09:06:11;100816.09;;;26.47;66.06
61318;BME280;47201;40.428;-8.436;2022-07-21T09:11:31;100815.78;;;27.04;63.20
61318;BME280;47201;40.428;-8.436;2022-07-21T09:14:14;100811.84;;;28.47;60.29
61318;BME280;47201;40.428;-8.436;2022-07-21T09:19:26;100820.72;;;28.96;56.43
61318;BME280;47201;40.428;-8.436;2022-07-21T09:21:38;100821.75;;;29.41;55.79
61318;BME280;47201;40.428;-8.436;2022-07-21T09:23:52;100806.09;;;30.13;53.98
61318;BME280;47201;40.428;-8.436;2022-07-21T09:26:10;100814.66;;;31.66;49.58
61318;BME280;47201;40.428;-8.436;2022-07-21T09:28:15;100816.38;;;32.77;46.63
61318;BME280;47201;40.428;-8.436;2022-07-21T09:30:16;100818.56;;;33.58;44.59
61318;BME280;47201;40.428;-8.436;2022-07-21T09:34:40;100818.75;;;34.75;41.95
61318;BME280;47201;40.428;-8.436;2022-07-21T09:36:54;100816.91;;;35.36;40.39
61318;BME280;47201;40.428;-8.436;2022-07-21T09:38:54;100820.03;;;35.15;39.05
61318;BME280;47201;40.428;-8.436;2022-07-21T09:41:11;100815.16;;;35.53;38.46
61318;BME280;47201;40.428;-8.436;2022-07-21T09:43:30;100814.00;;;36.24;37.26
61318;BME280;47201;40.428;-8.436;2022-07-21T09:45:46;100810.47;;;36.56;36.47
61318;BME280;47201;40.428;-8.436;2022-07-21T09:47:47;100816.03;;;36.96;35.28
61318;BME280;47201;40.428;-8.436;2022-07-21T09:49:51;100810.97;;;36.51;36.23
61318;BME280;47201;40.428;-8.436;2022-07-21T09:51:52;100809.59;;;36.97;35.31
61318;BME280;47201;40.428;-8.436;2022-07-21T09:54:03;100810.63;;;36.88;35.07
61318;BME280;47201;40.428;-8.436;2022-07-21T09:56:04;100813.00;;;36.66;33.98
61318;BME280;47201;40.428;-8.436;2022-07-21T09:58:05;100812.13;;;36.90;34.29
61318;BME280;47201;40.428;-8.436;2022-07-21T10:00:07;100812.94;;;37.15;32.98
61318;BME280;47201;40.428;-8.436;2022-07-21T10:02:09;100809.44;;;36.74;33.28
61318;BME280;47201;40.428;-8.436;2022-07-21T10:04:14;100816.41;;;36.93;33.64
61318;BME280;47201;40.428;-8.436;2022-07-21T10:06:16;100813.97;;;37.14;32.96
61318;BME280;47201;40.428;-8.436;2022-07-21T10:08:17;100813.09;;;37.14;33.17
61318;BME280;47201;40.428;-8.436;2022-07-21T10:10:17;100812.81;;;36.76;33.98
61318;BME280;47201;40.428;-8.436;2022-07-21T10:12:19;100803.63;;;36.77;33.88
61318;BME280;47201;40.428;-8.436;2022-07-21T10:14:19;100805.94;;;37.13;33.78
61318;BME280;47201;40.428;-8.436;2022-07-21T10:16:20;100808.25;;;37.89;32.12
61318;BME280;47201;40.428;-8.436;2022-07-21T10:18:31;100805.03;;;37.77;32.03
61318;BME280;47201;40.428;-8.436;2022-07-21T10:20:34;100803.66;;;37.33;32.73
61318;BME280;47201;40.428;-8.436;2022-07-21T10:25:10;100804.84;;;36.91;33.58
61318;BME280;47201;40.428;-8.436;2022-07-21T10:27:31;100811.13;;;36.91;33.56
61318;BME280;47201;40.428;-8.436;2022-07-21T10:30:05;100808.84;;;37.99;31.46
61318;BME280;47201;40.428;-8.436;2022-07-21T10:32:13;100807.22;;;36.77;33.42
61318;BME280;47201;40.428;-8.436;2022-07-21T10:34:16;100801.94;;;37.49;32.93
61318;BME280;47201;40.428;-8.436;2022-07-21T10:36:39;100813.41;;;37.27;32.93
61318;BME280;47201;40.428;-8.436;2022-07-21T10:47:10;100813.94;;;38.02;31.09
61318;BME280;47201;40.428;-8.436;2022-07-21T10:49:41;100814.72;;;37.80;31.60
61318;BME280;47201;40.428;-8.436;2022-07-21T10:51:42;100822.34;;;37.05;32.78
61318;BME280;47201;40.428;-8.436;2022-07-21T10:53:43;100816.72;;;36.98;33.27
61318;BME280;47201;40.428;-8.436;2022-07-21T10:55:51;100819.44;;;37.06;32.95